Time;durP1;ratioP1;P1;durP2;ratioP2;P2;SDS_P1;SDS_P2;PMS_P1;PMS_P2;Temp;Humidity;BMP_temperature;BMP_pressure;BME280_temperature;BME280_humidity;BME280_pressure;Samples;Min_cycle;Max_cycle;Signal;HPM_P1;HPM_P2
2023/05/20 00:00:26;;;;;;;29.08;4.82;;;;;;;21.85;52.56;102301.41;5058370;28;20041;-49
2023/05/20 00:02:52;;;;;;;17.30;7.72;;;;;;;21.97;52.11;102295.97;5059201;28;20037;-55
2023/05/20 00:05:17;;;;;;;9.10;3.77;;;;;;;21.85;52.25;102293.25;5059400;28;20034;-50
2023/05/20 00:07:42;;;;;;;12.23;3.80;;;;;;;21.76;52.67;102295.50;5056075;28;20053;-51
2023/05/20 00:10:08;;;;;;;9.90;3.80;;;;;;;21.61;53.17;102299.47;5040620;28;20282;-51
2023/05/20 00:12:34;;;;;;;19.55;6.47;;;;;;;21.65;53.22;102296.28;5058167;28;20040;-53
2023/05/20 00:15:00;;;;;;;13.13;4.22;;;;;;;21.67;53.32;102302.31;5058142;28;20033;-51
2023/05/20 00:17:27;;;;;;;11.73;4.60;;;;;;;21.49;53.82;102295.91;5059160;28;20055;-51
2023/05/20 00:19:52;;;;;;;;;;;;;;;21.52;54.08;102314.47;5058992;28;20037;-52
2023/05/20 00:22:18;;;;;;;10.50;4.03;;;;;;;21.56;53.99;102303.94;5057469;28;19998;-52
2023/05/20 00:24:44;;;;;;;11.88;4.75;;;;;;;21.66;53.75;102301.53;5056535;28;20044;-54
2023/05/20 00:27:10;;;;;;;11.43;4.33;;;;;;;21.53;53.78;102302.53;5055004;28;20037;-53
2023/05/20 00:29:35;;;;;;;10.30;4.57;;;;;;;21.13;55.44;102303.13;5055752;28;20039;-53
2023/05/20 00:32:01;;;;;;;21.65;5.65;;;;;;;21.20;55.43;102301.13;5059568;28;20037;-50
2023/05/20 00:34:26;;;;;;;13.05;4.57;;;;;;;21.29;55.07;102299.75;5056246;28;20041;-53
2023/05/20 00:36:52;;;;;;;14.93;4.90;;;;;;;20.91;56.58;102300.91;5039554;28;20178;-56
2023/05/20 00:39:17;;;;;;;10.00;4.13;;;;;;;21.26;56.28;102310.28;5044527;28;20033;-56
2023/05/20 00:41:44;;;;;;;;;;;;;;;21.45;55.32;102316.47;5059165;28;20037;-55
2023/05/20 00:44:10;;;;;;;16.57;4.73;;;;;;;21.64;54.32;102300.91;5055926;28;19920;-51
2023/05/20 00:46:35;;;;;;;12.77;5.43;;;;;;;21.60;54.74;102303.25;5061563;28;20032;-51
2023/05/20 00:49:01;;;;;;;20.00;6.05;;;;;;;21.40;55.16;102300.00;5038727;28;20025;-54
2023/05/20 00:51:27;;;;;;;12.13;5.10;;;;;;;21.28;55.66;102294.53;5041026;28;20056;-54
2023/05/20 00:53:53;;;;;;;10.47;5.37;;;;;;;21.13;55.98;102297.69;5041889;28;20033;-55
2023/05/20 00:56:20;;;;;;;;;;;;;;;21.05;56.55;102291.53;5054514;28;20313;-53
2023/05/20 00:58:46;;;;;;;12.77;4.80;;;;;;;20.86;57.39;102292.63;5042109;28;19913;-56
2023/05/20 01:01:12;;;;;;;15.10;5.27;;;;;;;21.03;56.83;102279.22;5039622;28;20365;-52
2023/05/20 01:03:39;;;;;;;11.33;5.10;;;;;;;21.04;57.05;102275.44;5056797;28;20266;-53
2023/05/20 01:06:05;;;;;;;11.95;3.78;;;;;;;20.57;58.85;102276.84;5060250;28;20276;-50
2023/05/20 01:08:31;;;;;;;14.32;5.28;;;;;;;20.91;57.91;102279.16;5056609;28;20045;-53
2023/05/20 01:11:24;;;;;;;13.55;4.57;;;;;;;20.97;57.55;102280.94;5055940;28;20029;-53
2023/05/20 01:13:55;;;;;;;11.63;4.60;;;;;;;20.87;58.16;102281.50;5047563;28;20128;-55
2023/05/20 01:16:23;;;;;;;10.13;4.83;;;;;;;20.96;57.97;102282.00;5054586;28;20335;-55
2023/05/20 01:18:50;;;;;;;10.27;4.53;;;;;;;20.90;58.23;102277.50;5039174;28;20279;-53
2023/05/20 01:21:16;;;;;;;14.50;4.40;;;;;;;20.78;58.76;102280.97;5038459;28;20271;-55
2023/05/20 01:23:42;;;;;;;22.90;4.75;;;;;;;20.27;61.15;102277.63;5019337;28;20353;-54
2023/05/20 01:26:12;;;;;;;16.70;4.70;;;;;;;20.71;59.98;102276.69;5043610;28;20032;-52
2023/05/20 01:28:38;;;;;;;10.03;4.23;;;;;;;20.70;60.20;102278.56;5039674;28;20266;-54
2023/05/20 01:31:09;;;;;;;20.88;5.45;;;;;;;20.69;60.32;102271.47;5041190;28;20265;-54
2023/05/20 01:33:40;;;;;;;14.53;5.77;;;;;;;20.81;60.06;102274.28;5060690;28;20063;-51
2023/05/20 01:36:07;;;;;;;9.77;4.90;;;;;;;20.86;59.94;102270.88;5036939;28;20278;-55
2023/05/20 01:38:35;;;;;;;8.37;4.40;;;;;;;20.99;59.32;102272.56;5038705;28;20270;-50
2023/05/20 01:41:03;;;;;;;11.33;4.40;;;;;;;20.90;59.71;102266.63;5040343;28;20386;-51
2023/05/20 01:43:29;;;;;;;14.63;5.00;;;;;;;20.67;60.48;102262.72;5055349;28;20273;-52
2023/05/20 01:45:55;;;;;;;10.10;4.85;;;;;;;20.40;62.32;102263.06;5055228;28;20275;-54
2023/05/20 01:48:20;;;;;;;13.83;4.43;;;;;;;20.30;63.65;102260.03;5039781;28;20120;-55
2023/05/20 01:50:46;;;;;;;11.75;4.32;;;;;;;20.49;62.63;102261.66;5040092;28;20061;-55
2023/05/20 01:53:12;;;;;;;12.00;4.93;;;;;;;20.58;62.82;102259.47;5037807;28;20041;-56
2023/05/20 01:55:38;;;;;;;13.95;5.10;;;;;;;20.61;62.61;102258.19;5056939;28;20040;-56
2023/05/20 01:58:04;;;;;;;11.63;4.97;;;;;;;20.65;62.52;102256.69;5037421;28;20068;-53
2023/05/20 02:00:34;;;;;;;9.73;4.57;;;;;;;20.79;62.47;102249.19;5037294;28;20123;-53
2023/05/20 02:03:02;;;;;;;16.80;4.77;;;;;;;20.75;62.05;102258.84;5054527;28;20037;-51
2023/05/20 02:05:28;;;;;;;13.93;4.57;;;;;;;20.92;61.24;102248.19;5052628;28;20259;-55
2023/05/20 02:07:55;;;;;;;11.30;4.37;;;;;;;20.93;61.31;102258.00;5056783;28;20271;-60
2023/05/20 02:10:21;;;;;;;10.50;4.95;;;;;;;20.88;61.54;102257.88;5039151;28;20270;-54
2023/05/20 02:12:48;;;;;;;9.93;4.20;;;;;;;20.73;62.30;102260.97;5056381;28;20029;-55
2023/05/20 02:15:14;;;;;;;8.47;4.03;;;;;;;20.87;61.88;102259.75;5054446;28;20060;-55
2023/05/20 02:17:42;;;;;;;9.88;4.20;;;;;;;20.81;62.18;102257.16;5056622;28;20258;-54
2023/05/20 02:20:09;;;;;;;14.80;4.40;;;;;;;20.61;63.09;102252.75;5038670;28;20033;-51
2023/05/20 02:22:35;;;;;;;8.45;4.30;;;;;;;20.70;62.87;102245.13;5056031;28;20338;-55
2023/05/20 02:25:02;;;;;;;10.60;4.60;;;;;;;20.66;63.26;102254.81;5058185;28;20064;-52
2023/05/20 02:27:27;;;;;;;10.02;5.13;;;;;;;20.46;64.03;102250.44;5056306;28;20272;-52
2023/05/20 02:29:53;;;;;;;13.02;4.30;;;;;;;20.55;64.20;102256.41;5040633;28;20033;-54
2023/05/20 02:32:19;;;;;;;12.90;5.05;;;;;;;20.49;64.07;102244.56;5039482;28;20092;-54
2023/05/20 02:34:45;;;;;;;;;;;;;;;20.41;65.52;102248.41;5058913;28;20040;-54
2023/05/20 02:37:11;;;;;;;13.10;4.00;;;;;;;20.51;64.69;102242.44;5055937;28;19913;-52
2023/05/20 02:39:36;;;;;;;8.35;4.07;;;;;;;20.61;64.35;102231.03;5039277;28;20040;-53
2023/05/20 02:42:03;;;;;;;9.13;4.32;;;;;;;20.23;65.61;102229.38;5055613;28;20105;-53
2023/05/20 02:44:29;;;;;;;14.57;4.63;;;;;;;20.37;66.10;102230.91;5061564;28;20041;-54
2023/05/20 02:46:55;;;;;;;9.57;4.37;;;;;;;20.34;66.09;102231.38;5040738;28;20033;-51
2023/05/20 02:49:21;;;;;;;10.10;5.37;;;;;;;20.32;66.27;102236.19;5040165;28;20275;-53
2023/05/20 02:51:46;;;;;;;10.50;4.13;;;;;;;20.15;67.99;102227.81;5057577;28;20097;-57
2023/05/20 02:54:12;;;;;;;9.00;4.25;;;;;;;20.21;67.66;102237.78;5038697;28;20033;-53
2023/05/20 02:56:38;;;;;;;15.13;4.90;;;;;;;20.44;66.63;102230.84;5038298;28;20105;-51
2023/05/20 02:59:05;;;;;;;13.60;5.00;;;;;;;20.34;66.58;102234.09;5037643;28;20040;-52
2023/05/20 03:01:32;;;;;;;11.50;4.60;;;;;;;20.34;67.30;102232.19;5038216;28;20294;-53
2023/05/20 03:03:58;;;;;;;11.47;4.87;;;;;;;20.28;67.58;102226.81;5038961;28;20270;-53
2023/05/20 03:06:25;;;;;;;9.98;4.53;;;;;;;20.26;67.50;102235.22;5059364;28;20277;-54
2023/05/20 03:08:50;;;;;;;11.77;4.25;;;;;;;20.13;68.33;102222.63;5055231;28;20064;-54
2023/05/20 03:11:16;;;;;;;8.63;4.50;;;;;;;19.71;70.58;102227.81;5053761;28;20033;-54
2023/05/20 03:13:41;;;;;;;12.00;4.78;;;;;;;20.03;70.05;102233.16;5056554;28;20053;-54
2023/05/20 03:16:07;;;;;;;12.73;4.80;;;;;;;20.04;70.14;102227.50;5052208;28;20041;-57
2023/05/20 03:18:32;;;;;;;9.65;3.75;;;;;;;20.12;69.93;102237.25;5035679;28;20057;-54
2023/05/20 03:20:58;;;;;;;8.45;4.25;;;;;;;19.97;70.83;102234.06;5037795;28;20059;-58
2023/05/20 03:23:24;;;;;;;12.45;4.28;;;;;;;20.02;71.04;102243.19;5036319;28;20037;-56
2023/05/20 03:25:51;;;;;;;;;;;;;;;20.20;69.84;102245.09;5039879;28;20033;-54
2023/05/20 03:28:16;;;;;;;9.50;4.47;;;;;;;20.34;68.82;102243.03;5052914;28;19920;-55
2023/05/20 03:30:42;;;;;;;14.65;4.60;;;;;;;20.26;69.26;102239.81;5039639;28;20033;-56
2023/05/20 03:33:09;;;;;;;6.63;3.83;;;;;;;20.29;69.66;102244.78;5037831;28;20030;-52
2023/05/20 03:35:35;;;;;;;9.45;4.28;;;;;;;20.16;70.56;102243.03;5037720;28;20318;-53
2023/05/20 03:38:00;;;;;;;8.17;4.30;;;;;;;20.19;70.26;102240.72;5037505;28;20108;-51
2023/05/20 03:40:26;;;;;;;9.88;4.55;;;;;;;20.11;71.07;102243.75;5036151;28;20060;-54
2023/05/20 03:42:52;;;;;;;14.18;4.80;;;;;;;20.13;71.16;102246.22;5037785;28;20038;-51
2023/05/20 03:45:19;;;;;;;14.50;4.53;;;;;;;19.67;73.92;102232.03;5037752;28;20030;-54
2023/05/20 03:48:05;;;;;;;11.50;4.33;;;;;;;19.80;73.68;102231.88;5053118;28;20326;-55
2023/05/20 03:50:33;;;;;;;14.43;4.60;;;;;;;19.83;74.65;102236.06;5056745;28;20250;-57
2023/05/20 03:52:59;;;;;;;;;;;;;;;19.82;74.97;102229.78;5036049;28;20273;-51
2023/05/20 03:55:26;;;;;;;11.93;4.90;;;;;;;19.55;76.94;102230.03;5029728;28;19917;-53
2023/05/20 03:57:53;;;;;;;11.77;4.17;;;;;;;19.83;75.13;102234.16;5056797;28;20033;-55
2023/05/20 04:00:20;;;;;;;12.33;4.73;;;;;;;19.67;76.78;102234.75;5035274;28;20290;-56
2023/05/20 04:02:47;;;;;;;15.30;6.07;;;;;;;19.71;75.87;102231.34;5039495;28;20310;-56
2023/05/20 04:05:16;;;;;;;9.13;4.47;;;;;;;19.76;76.12;102228.81;5035315;28;20317;-55
2023/05/20 04:07:41;;;;;;;12.10;4.18;;;;;;;19.61;77.45;102234.59;5054764;28;20053;-55
2023/05/20 04:10:08;;;;;;;7.68;4.47;;;;;;;19.72;76.79;102229.47;5035112;28;20112;-57
2023/05/20 04:12:36;;;;;;;9.98;3.88;;;;;;;19.73;76.96;102231.13;5039315;28;20030;-54
2023/05/20 04:15:03;;;;;;;11.93;4.00;;;;;;;19.89;75.62;102236.00;5039720;28;20044;-56
2023/05/20 04:17:37;;;;;;;10.93;4.13;;;;;;;19.83;76.32;102231.44;5037709;28;20346;-54
2023/05/20 04:20:06;;;;;;;18.50;5.20;;;;;;;19.80;76.52;102236.50;5038085;28;20297;-53
2023/05/20 04:22:32;;;;;;;9.17;4.70;;;;;;;19.72;76.95;102234.91;5037016;28;20324;-53
2023/05/20 04:24:59;;;;;;;9.83;4.20;;;;;;;19.81;76.70;102238.16;5038829;28;20331;-56
2023/05/20 04:27:24;;;;;;;14.63;4.33;;;;;;;19.66;78.25;102238.50;5053045;28;20274;-54
2023/05/20 04:29:51;;;;;;;10.70;4.25;;;;;;;19.90;76.57;102243.09;5037907;28;20044;-52
2023/05/20 04:32:18;;;;;;;11.33;4.40;;;;;;;19.81;77.10;102235.44;5033582;28;20060;-54
2023/05/20 04:34:45;;;;;;;;;;;;;;;19.86;77.05;102236.44;5054358;28;20330;-55
2023/05/20 04:37:12;;;;;;;11.50;4.07;;;;;;;19.71;78.16;102233.25;5035290;28;19913;-55
2023/05/20 04:39:39;;;;;;;7.03;4.13;;;;;;;19.82;78.32;102240.63;5054198;28;20040;-53
2023/05/20 04:42:06;;;;;;;12.33;4.80;;;;;;;19.88;77.90;102244.34;5033240;28;20267;-51
2023/05/20 04:44:32;;;;;;;11.77;5.07;;;;;;;19.99;77.39;102240.09;5052710;28;20289;-54
2023/05/20 04:46:58;;;;;;;8.55;5.13;;;;;;;19.53;80.42;102244.88;5059858;28;20037;-54
2023/05/20 04:49:24;;;;;;;;;;;;;;;19.82;79.83;102245.25;5040715;28;20040;-53
2023/05/20 04:51:54;;;;;;;13.40;4.83;;;;;;;20.07;77.87;102253.41;5058011;28;19931;-55
2023/05/20 04:54:20;;;;;;;9.83;4.30;;;;;;;19.97;78.08;102250.34;5038733;28;20527;-53
2023/05/20 04:56:46;;;;;;;12.20;4.80;;;;;;;19.96;77.79;102248.69;5059481;28;20281;-55
2023/05/20 04:59:12;;;;;;;11.20;3.93;;;;;;;20.12;77.24;102252.69;5040243;28;20279;-54
2023/05/20 05:01:39;;;;;;;13.57;4.37;;;;;;;20.04;77.74;102237.53;5038336;28;20271;-56
2023/05/20 05:04:05;;;;;;;14.20;4.50;;;;;;;20.23;76.54;102235.66;5040268;28;20300;-55
2023/05/20 05:06:31;;;;;;;11.88;4.82;;;;;;;20.05;77.32;102239.19;5039254;28;20081;-51
2023/05/20 05:08:57;;;;;;;9.15;4.45;;;;;;;20.17;76.55;102241.97;5024914;28;20081;-51
2023/05/20 05:11:25;;;;;;;8.83;3.80;;;;;;;20.23;76.57;102241.09;5026451;28;20034;-55
2023/05/20 05:13:51;;;;;;;11.63;4.95;;;;;;;20.17;76.04;102240.13;5027209;28;20284;-55
2023/05/20 05:16:19;;;;;;;14.17;6.23;;;;;;;20.26;76.21;102243.38;5027598;28;20046;-51
2023/05/20 05:18:45;;;;;;;20.83;7.97;;;;;;;20.28;75.90;102238.53;5027247;28;20267;-53
2023/05/20 05:21:11;;;;;;;12.23;5.75;;;;;;;20.46;74.01;102240.41;5029523;28;20098;-53
2023/05/20 05:23:37;;;;;;;23.83;12.77;;;;;;;20.42;74.14;102244.63;5025047;28;20038;-52
2023/05/20 05:26:02;;;;;;;14.93;7.27;;;;;;;20.37;74.30;102236.34;5024677;28;20042;-53
2023/05/20 05:28:28;;;;;;;16.42;5.35;;;;;;;20.45;74.16;102232.50;5012273;28;20041;-57
2023/05/20 05:30:55;;;;;;;12.67;3.87;;;;;;;20.24;74.90;102220.19;5027345;28;20042;-56
2023/05/20 05:33:21;;;;;;;11.60;4.30;;;;;;;20.43;74.91;102230.00;5022467;28;20029;-55
2023/05/20 05:35:47;;;;;;;9.75;4.32;;;;;;;20.30;74.71;102230.97;5024999;28;20276;-55
2023/05/20 05:38:13;;;;;;;23.20;6.90;;;;;;;20.42;74.79;102235.66;5023539;28;20069;-55
2023/05/20 05:40:39;;;;;;;13.10;5.40;;;;;;;20.41;74.53;102242.13;5021641;28;20280;-54
2023/05/20 05:43:05;;;;;;;;;;;;;;;20.44;75.52;102237.09;5027446;28;20268;-53
2023/05/20 05:45:31;;;;;;;15.07;6.40;;;;;;;20.56;74.36;102228.19;5022765;28;19937;-52
2023/05/20 05:47:57;;;;;;;7.63;4.40;;;;;;;20.68;73.09;102237.19;5025511;28;20065;-56
2023/05/20 05:50:24;;;;;;;9.30;4.30;;;;;;;20.58;74.49;102226.06;5022016;28;20035;-52
2023/05/20 05:52:49;;;;;;;8.30;4.15;;;;;;;20.76;73.33;102230.63;5024115;28;20290;-50
2023/05/20 05:55:17;;;;;;;11.07;4.20;;;;;;;20.83;72.31;102230.56;5024921;28;20101;-52
2023/05/20 05:57:42;;;;;;;;;;;;;;;20.87;72.62;102234.47;5020088;28;20034;-53
2023/05/20 06:00:09;;;;;;;9.17;4.17;;;;;;;20.84;72.84;102230.31;5022286;28;19921;-50
2023/05/20 06:02:45;;;;;;;5.77;3.70;;;;;;;20.96;72.00;102227.63;5023167;28;20263;-56
2023/05/20 06:05:14;;;;;;;10.37;5.37;;;;;;;21.08;72.72;102224.94;5023597;28;20327;-53
2023/05/20 06:07:39;;;;;;;11.25;4.03;;;;;;;21.14;71.51;102224.03;5032898;28;20278;-49
2023/05/20 06:10:05;;;;;;;12.40;4.50;;;;;;;21.07;71.81;102226.00;5039854;28;20040;-50
2023/05/20 06:12:31;;;;;;;;;;;;;;;21.03;71.42;102222.94;5039991;28;20040;-51
2023/05/20 06:14:57;;;;;;;6.37;3.47;;;;;;;21.19;70.16;102223.31;5037033;28;19980;-55
2023/05/20 06:17:23;;;;;;;14.00;7.37;;;;;;;21.25;71.03;102219.69;5037039;28;20044;-56
2023/05/20 06:19:48;;;;;;;12.70;5.53;;;;;;;21.02;71.50;102232.16;5057186;28;20029;-54
2023/05/20 06:22:15;;;;;;;7.23;4.33;;;;;;;21.13;70.69;102226.97;5041201;28;20041;-52
2023/05/20 06:24:41;;;;;;;9.70;4.80;;;;;;;21.18;70.23;102229.81;5042094;28;20333;-48
2023/05/20 06:27:06;;;;;;;7.03;4.07;;;;;;;21.34;69.32;102229.13;5054454;28;20336;-56
2023/05/20 06:29:32;;;;;;;9.00;3.92;;;;;;;21.26;70.50;102225.94;5039076;28;20029;-54
2023/05/20 06:31:58;;;;;;;10.25;4.82;;;;;;;21.18;70.95;102218.94;5039501;28;20033;-55
2023/05/20 06:34:24;;;;;;;11.63;3.97;;;;;;;21.39;69.72;102224.88;5036457;28;20029;-57
2023/05/20 06:36:50;;;;;;;13.37;4.13;;;;;;;21.68;68.63;102206.81;5041783;28;20285;-56
2023/05/20 06:39:15;;;;;;;11.40;4.82;;;;;;;21.86;67.38;102224.91;5042807;28;20311;-56
2023/05/20 06:41:43;;;;;;;8.70;3.90;;;;;;;21.51;67.00;102214.84;5038271;28;20033;-55
2023/05/20 06:44:09;;;;;;;6.53;3.35;;;;;;;21.80;64.81;102216.88;5057723;28;20352;-54
2023/05/20 06:47:13;;;;;;;5.93;3.00;;;;;;;21.79;64.59;102205.16;4973813;29;20079;-50
2023/05/20 06:49:39;;;;;;;12.27;3.97;;;;;;;21.97;66.04;102206.09;5017167;28;20282;-53
2023/05/20 06:52:05;;;;;;;6.05;3.58;;;;;;;22.13;65.59;102208.06;5043287;28;20263;-54
2023/05/20 06:54:34;;;;;;;;;;;;;;;22.12;65.81;102208.31;5037257;28;20029;-54
2023/05/20 06:57:00;;;;;;;9.00;3.90;;;;;;;22.16;65.01;102204.88;5040021;28;19919;-52
2023/05/20 06:59:26;;;;;;;7.43;3.20;;;;;;;22.37;64.23;102199.81;5054451;28;20290;-56
2023/05/20 07:01:52;;;;;;;18.25;3.70;;;;;;;22.30;63.21;102201.88;5041557;28;20049;-53
2023/05/20 07:04:17;;;;;;;8.38;3.25;;;;;;;22.28;62.82;102204.00;5038694;28;20091;-54
2023/05/20 07:06:43;;;;;;;12.52;5.55;;;;;;;22.46;62.72;102200.25;5040893;28;20029;-57
2023/05/20 07:09:08;;;;;;;7.75;3.17;;;;;;;22.44;60.82;102202.41;5019544;28;20046;-56
2023/05/20 07:11:34;;;;;;;7.30;3.40;;;;;;;22.41;61.71;102200.16;5017722;28;20049;-51
2023/05/20 07:14:00;;;;;;;7.40;3.20;;;;;;;22.73;60.62;102188.81;5017608;28;20030;-50
2023/05/20 07:16:28;;;;;;;6.53;2.90;;;;;;;22.74;60.61;102191.28;5017385;28;20093;-53
2023/05/20 07:18:54;;;;;;;9.73;3.30;;;;;;;22.86;58.63;102191.22;5017618;28;20279;-54
2023/05/20 07:21:20;;;;;;;6.63;3.57;;;;;;;22.48;59.94;102188.09;5016415;28;20333;-55
2023/05/20 07:24:18;;;;;;;4.97;2.63;;;;;;;23.02;58.22;102191.50;4998581;28;20091;-51
2023/05/20 07:26:43;;;;;;;8.38;2.65;;;;;;;23.23;57.59;102186.38;5020998;28;20275;-55
2023/05/20 07:29:09;;;;;;;8.05;3.25;;;;;;;23.18;58.27;102185.22;5017364;28;20058;-58
2023/05/20 07:31:37;;;;;;;9.73;3.67;;;;;;;23.46;57.26;102186.22;5017886;28;20054;-54
2023/05/20 07:34:03;;;;;;;7.25;3.20;;;;;;;23.53;57.10;102185.22;5013941;28;20310;-51
2023/05/20 07:36:29;;;;;;;6.90;2.72;;;;;;;23.22;56.42;102177.34;5016396;28;20034;-52
2023/05/20 07:38:57;;;;;;;7.37;2.80;;;;;;;23.51;56.04;102181.91;5017244;28;20034;-56
2023/05/20 07:41:23;;;;;;;5.97;2.43;;;;;;;23.82;54.81;102174.97;5019231;28;20287;-54
2023/05/20 07:43:49;;;;;;;6.15;2.65;;;;;;;23.85;53.67;102174.47;5017919;28;20033;-55
2023/05/20 07:46:15;;;;;;;5.82;2.60;;;;;;;23.90;53.56;102169.06;5021349;28;20041;-54
2023/05/20 07:48:41;;;;;;;10.85;2.40;;;;;;;23.86;53.46;102167.94;5017063;28;20053;-54
2023/05/20 07:51:07;;;;;;;6.88;2.90;;;;;;;23.63;53.67;102164.34;5020370;28;20069;-55
2023/05/20 07:53:33;;;;;;;9.13;2.65;;;;;;;23.73;52.77;102171.00;5019516;28;20030;-54
2023/05/20 07:55:59;;;;;;;5.30;2.35;;;;;;;23.43;52.31;102164.91;5016957;28;20038;-53
2023/05/20 07:58:27;;;;;;;9.00;2.27;;;;;;;24.00;50.60;102159.38;5018026;28;20026;-55
2023/05/20 08:00:53;;;;;;;;;;;;;;;23.91;51.87;102170.72;5018503;28;20072;-55
2023/05/20 08:03:18;;;;;;;5.93;2.13;;;;;;;23.97;51.71;102159.84;5018502;28;19968;-55
2023/05/20 08:05:54;;;;;;;6.87;2.63;;;;;;;24.33;51.77;102163.03;5018575;28;20026;-53
2023/05/20 08:08:20;;;;;;;6.35;2.38;;;;;;;24.05;50.28;102162.19;5029315;28;20068;-53
2023/05/20 08:11:00;;;;;;;7.53;2.70;;;;;;;24.21;49.89;102163.19;5032329;28;20056;-51
2023/05/20 08:13:26;;;;;;;7.53;2.30;;;;;;;24.02;50.02;102160.78;5034237;28;20282;-54
2023/05/20 08:15:53;;;;;;;4.20;2.50;;;;;;;24.46;49.80;102167.28;5016092;28;20093;-53
2023/05/20 08:18:19;;;;;;;10.60;2.20;;;;;;;24.18;49.89;102164.50;5033402;28;20056;-51
2023/05/20 08:20:46;;;;;;;;;;;;;;;24.13;49.80;102160.91;5040343;28;20107;-52
2023/05/20 08:23:11;;;;;;;6.23;2.60;;;;;;;24.27;49.50;102150.41;5039852;28;19913;-54
2023/05/20 08:25:37;;;;;;;5.75;2.47;;;;;;;24.42;49.23;102152.47;5041568;28;20029;-53
2023/05/20 08:28:05;;;;;;;5.13;1.98;;;;;;;24.72;48.95;102156.56;5042495;28;20061;-50
2023/05/20 08:30:34;;;;;;;5.50;2.30;;;;;;;24.46;47.85;102142.66;5032387;28;20029;-55
2023/05/20 08:33:00;;;;;;;7.07;2.97;;;;;;;24.45;47.09;102146.47;5038453;28;20030;-52
2023/05/20 08:35:27;;;;;;;5.00;2.97;;;;;;;24.67;46.71;102153.81;5038503;28;20034;-56
2023/05/20 08:37:53;;;;;;;6.05;1.85;;;;;;;24.63;47.87;102148.84;5042505;28;20042;-52
2023/05/20 08:40:20;;;;;;;4.13;2.10;;;;;;;24.88;47.31;102142.00;5039849;28;20037;-51
2023/05/20 08:42:47;;;;;;;11.07;3.83;;;;;;;24.73;47.12;102148.13;5039351;28;20053;-51
2023/05/20 08:45:17;;;;;;;12.07;3.67;;;;;;;24.61;47.19;102144.72;5041875;28;20029;-53
2023/05/20 08:47:43;;;;;;;4.60;1.87;;;;;;;24.68;46.91;102139.03;5037195;28;20036;-55
2023/05/20 08:50:10;;;;;;;6.60;2.40;;;;;;;24.83;47.25;102146.59;5038023;28;20025;-56
2023/05/20 08:52:39;;;;;;;4.37;1.80;;;;;;;25.29;46.55;102133.25;5041841;28;20033;-51
2023/05/20 08:55:06;;;;;;;4.07;2.10;;;;;;;25.30;46.36;102137.63;5036902;28;20033;-49
2023/05/20 08:57:32;;;;;;;7.83;1.80;;;;;;;25.16;46.04;102133.72;5036633;28;20093;-53
2023/05/20 08:59:58;;;;;;;7.00;1.90;;;;;;;25.53;44.53;102137.53;5039678;28;20080;-52
2023/05/20 09:02:24;;;;;;;3.58;1.80;;;;;;;25.79;44.48;102134.91;5038021;28;20034;-48
2023/05/20 09:04:50;;;;;;;4.80;1.98;;;;;;;25.57;44.37;102133.97;5033637;28;20034;-53
2023/05/20 09:07:26;;;;;;;6.22;1.92;;;;;;;25.58;44.58;102123.84;5040545;28;20106;-53
2023/05/20 09:09:52;;;;;;;5.30;2.30;;;;;;;25.80;44.27;102125.59;5056998;28;20025;-51
2023/05/20 09:12:20;;;;;;;4.55;1.67;;;;;;;26.14;44.12;102127.88;5055599;28;20042;-51
2023/05/20 09:14:45;;;;;;;7.53;2.73;;;;;;;26.23;43.33;102125.47;5054660;28;20056;-53
2023/05/20 09:17:12;;;;;;;3.30;1.70;;;;;;;26.09;43.37;102127.88;5057577;28;20033;-54
2023/05/20 09:19:37;;;;;;;;;;;;;;;26.27;43.94;102127.41;5057868;28;20043;-56
2023/05/20 09:22:04;;;;;;;4.43;1.93;;;;;;;26.27;42.38;102121.94;5057974;28;19952;-53
2023/05/20 09:24:29;;;;;;;3.10;1.70;;;;;;;26.50;42.27;102130.72;5057521;28;20038;-51
2023/05/20 09:26:56;;;;;;;5.35;2.00;;;;;;;26.89;41.41;102127.50;5055659;28;20106;-51
2023/05/20 09:29:22;;;;;;;2.70;1.73;;;;;;;26.77;41.80;102132.38;5057069;28;20024;-54
2023/05/20 09:31:48;;;;;;;6.38;1.95;;;;;;;27.17;40.60;102124.41;5036966;28;20033;-54
2023/05/20 09:34:14;;;;;;;6.20;2.00;;;;;;;27.27;40.11;102118.91;5055447;28;20115;-55
2023/05/20 09:36:42;;;;;;;4.60;2.38;;;;;;;27.94;40.34;102123.34;5053780;28;20053;-52
2023/05/20 09:39:13;;;;;;;4.23;2.00;;;;;;;28.41;39.45;102123.94;5055490;28;20484;-51
2023/05/20 09:41:51;;;;;;;3.80;2.00;;;;;;;28.58;38.51;102111.66;5058914;28;20060;-52
2023/05/20 09:44:17;;;;;;;6.23;1.87;;;;;;;29.04;37.50;102118.72;5054730;28;20046;-54
2023/05/20 09:46:45;;;;;;;3.83;2.00;;;;;;;29.51;36.37;102109.97;5056518;28;20028;-50
2023/05/20 09:49:12;;;;;;;3.80;1.80;;;;;;;29.86;35.60;102111.44;5060185;28;20049;-48
2023/05/20 09:51:39;;;;;;;3.97;1.73;;;;;;;30.12;35.08;102118.59;5054643;28;20107;-56
2023/05/20 09:54:07;;;;;;;3.40;1.93;;;;;;;30.23;34.50;102114.53;5056358;28;20094;-53
2023/05/20 09:56:34;;;;;;;7.73;2.17;;;;;;;31.16;34.08;102120.44;5056857;28;20032;-49
2023/05/20 09:59:00;;;;;;;5.72;1.73;;;;;;;31.93;32.58;102123.59;5058455;28;20073;-48
2023/05/20 10:01:25;;;;;;;7.90;2.00;;;;;;;32.85;31.46;102122.50;5052513;28;20033;-53
2023/05/20 10:03:52;;;;;;;8.88;2.10;;;;;;;32.90;31.74;102129.88;5056146;28;20030;-55
2023/05/20 10:06:40;;;;;;;4.43;1.55;;;;;;;33.21;30.89;102125.47;5056248;28;20126;-56
2023/05/20 10:09:09;;;;;;;3.08;1.50;;;;;;;33.52;30.68;102128.19;5054389;28;20049;-54
2023/05/20 10:11:52;;;;;;;4.85;2.10;;;;;;;34.00;29.89;102123.72;5054634;28;20039;-56
2023/05/20 10:14:44;;;;;;;3.97;1.80;;;;;;;33.77;29.26;102125.81;5053410;28;20061;-57
2023/05/20 10:17:24;;;;;;;7.32;1.92;;;;;;;33.84;29.23;102117.81;5056049;28;20033;-52
2023/05/20 10:19:56;;;;;;;2.53;1.17;;;;;;;33.22;30.03;102108.53;5057991;28;20089;-57
2023/05/20 10:22:29;;;;;;;2.17;1.35;;;;;;;33.41;30.07;102108.25;5055870;28;20067;-53
2023/05/20 10:25:06;;;;;;;3.88;1.83;;;;;;;33.24;30.08;102122.03;5058154;28;20045;-59
2023/05/20 10:27:43;;;;;;;4.65;1.88;;;;;;;32.42;30.89;102107.25;5054748;28;20033;-56
2023/05/20 10:30:15;;;;;;;4.72;1.98;;;;;;;32.76;30.68;102105.03;5055032;28;20084;-55
2023/05/20 10:32:48;;;;;;;7.47;1.42;;;;;;;32.70;30.47;102109.88;5055674;28;20098;-57
2023/05/20 10:35:20;;;;;;;3.17;1.35;;;;;;;33.58;29.59;102096.41;5037967;28;20057;-54
2023/05/20 10:37:49;;;;;;;2.85;1.85;;;;;;;34.54;29.27;102100.34;5056078;28;20021;-50
2023/05/20 10:40:18;;;;;;;4.20;1.80;;;;;;;33.80;29.22;102100.19;5053798;28;20029;-50
2023/05/20 10:42:44;;;;;;;2.33;1.40;;;;;;;34.83;28.51;102103.50;5054093;28;20033;-56
2023/05/20 10:45:11;;;;;;;5.43;1.80;;;;;;;34.22;29.26;102102.47;5055409;28;20088;-52
2023/05/20 10:47:52;;;;;;;5.72;1.70;;;;;;;35.20;27.74;102089.97;5055042;28;20036;-55
2023/05/20 10:50:37;;;;;;;6.43;1.45;;;;;;;35.64;27.51;102091.69;5051504;28;20045;-55
2023/05/20 10:53:04;;;;;;;5.95;2.20;;;;;;;35.75;27.15;102092.91;5051675;28;20041;-55
2023/05/20 10:55:38;;;;;;;5.35;1.50;;;;;;;36.50;26.60;102090.47;5051871;28;20017;-49
2023/05/20 10:58:05;;;;;;;3.33;1.50;;;;;;;36.38;26.96;102088.47;5049926;28;20036;-51
2023/05/20 11:00:33;;;;;;;5.00;1.70;;;;;;;36.45;26.96;102086.75;5051685;28;20036;-52
2023/05/20 11:02:59;;;;;;;4.95;1.73;;;;;;;36.35;26.34;102087.16;5055507;28;20072;-57
2023/05/20 11:05:25;;;;;;;2.60;1.25;;;;;;;36.74;26.25;102084.97;5053690;28;20409;-54
2023/05/20 11:08:02;;;;;;;2.40;1.48;;;;;;;36.32;26.58;102082.28;5057327;28;20038;-59
2023/05/20 11:10:28;;;;;;;5.55;1.70;;;;;;;36.80;26.14;102087.50;5057256;28;20141;-52
2023/05/20 11:12:57;;;;;;;7.70;1.75;;;;;;;37.14;25.95;102086.28;5055157;28;20067;-57
2023/05/20 11:15:26;;;;;;;6.32;1.83;;;;;;;37.75;25.91;102089.31;5054289;28;20037;-52
2023/05/20 11:17:55;;;;;;;4.00;2.10;;;;;;;38.25;25.27;102083.53;5057151;28;20029;-58
2023/05/20 11:20:22;;;;;;;7.93;3.63;;;;;;;38.01;24.84;102079.69;5055262;28;20056;-58
2023/05/20 11:22:49;;;;;;;5.63;1.98;;;;;;;38.32;24.34;102072.56;5052337;28;20044;-54
2023/05/20 11:25:15;;;;;;;6.57;2.03;;;;;;;37.20;25.26;102060.94;5054630;28;20037;-57